Time;durP1;ratioP1;P1;durP2;ratioP2;P2;SDS_P1;SDS_P2;PMS_P1;PMS_P2;Temp;Humidity;BMP_temperature;BMP_pressure;BME280_temperature;BME280_humidity;BME280_pressure;Samples;Min_cycle;Max_cycle;Signal;HPM_P1;HPM_P2
2021/11/09 00:01:03;;;;;;;12.55;10.10;;;11.50;82.20;;;;;;5030464;28;20101;-53
2021/11/09 00:03:41;;;;;;;12.45;9.95;;;11.30;81.50;;;;;;5034203;28;20151;-54
2021/11/09 00:06:21;;;;;;;11.35;9.05;;;11.30;82.10;;;;;;5028666;28;20112;-54
2021/11/09 00:08:57;;;;;;;12.02;10.02;;;11.30;82.20;;;;;;5038106;28;20020;-52
2021/11/09 00:11:25;;;;;;;12.77;9.82;;;11.20;82.20;;;;;;5030345;28;20021;-54
2021/11/09 00:13:51;;;;;;;11.25;9.52;;;11.20;82.10;;;;;;5036548;28;20021;-55
2021/11/09 00:16:17;;;;;;;13.27;9.43;;;11.30;82.80;;;;;;5031294;28;20021;-55
2021/11/09 00:18:45;;;;;;;12.70;9.88;;;11.30;82.50;;;;;;5035674;28;20053;-54
2021/11/09 00:21:11;;;;;;;12.85;9.73;;;11.20;82.10;;;;;;5032829;28;20034;-55
2021/11/09 00:24:26;;;;;;;12.10;9.05;;;11.20;82.00;;;;;;5038395;28;20132;-49
2021/11/09 00:26:52;;;;;;;11.75;9.27;;;11.30;82.70;;;;;;5026731;28;20029;-54
2021/11/09 00:29:18;;;;;;;11.77;9.48;;;11.30;82.30;;;;;;5031115;28;20033;-54
2021/11/09 00:31:44;;;;;;;10.32;9.23;;;11.30;82.30;;;;;;5032059;28;20480;-54
2021/11/09 00:34:10;;;;;;;10.25;8.98;;;11.30;82.70;;;;;;5034976;28;20033;-54
2021/11/09 00:36:35;;;;;;;12.18;8.65;;;11.20;82.00;;;;;;5032640;28;20030;-54
2021/11/09 00:39:01;;;;;;;10.38;8.65;;;11.10;82.30;;;;;;5031749;28;20120;-55
2021/11/09 00:41:27;;;;;;;11.88;9.38;;;11.10;82.80;;;;;;5030895;28;20514;-56
2021/11/09 00:43:53;;;;;;;10.38;8.65;;;11.20;83.10;;;;;;5044121;28;20059;-54
2021/11/09 00:46:18;;;;;;;10.82;9.43;;;11.20;82.70;;;;;;5028332;28;20029;-56
2021/11/09 00:49:05;;;;;;;10.70;8.25;;;11.20;83.00;;;;;;5031192;28;20021;-50
2021/11/09 00:51:31;;;;;;;9.40;7.80;;;11.20;83.00;;;;;;5032651;28;20492;-50
2021/11/09 00:53:57;;;;;;;10.82;8.73;;;11.10;83.30;;;;;;5042126;28;20116;-52
2021/11/09 00:56:22;;;;;;;11.52;8.15;;;11.20;82.70;;;;;;5032244;28;20124;-55
2021/11/09 00:58:48;;;;;;;9.13;7.78;;;11.10;82.20;;;;;;5030213;28;20124;-55
2021/11/09 01:01:14;;;;;;;9.70;8.23;;;11.10;82.80;;;;;;5025700;28;20059;-55
2021/11/09 01:03:46;;;;;;;8.75;7.85;;;11.10;82.40;;;;;;5032120;28;20029;-55
2021/11/09 01:06:11;;;;;;;9.70;7.95;;;11.00;82.10;;;;;;5018647;28;20383;-56
2021/11/09 01:08:37;;;;;;;9.93;8.63;;;11.10;82.50;;;;;;5029683;28;20033;-51
2021/11/09 01:11:03;;;;;;;9.27;8.30;;;11.10;83.00;;;;;;5037137;28;20088;-54
2021/11/09 01:13:30;;;;;;;10.80;7.82;;;11.10;82.60;;;;;;5031584;28;20108;-54
2021/11/09 01:15:57;;;;;;;10.48;8.32;;;11.00;82.70;;;;;;5032249;28;20105;-54
2021/11/09 01:18:30;;;;;;;10.75;8.10;;;11.10;82.70;;;;;;5049605;28;20059;-56
2021/11/09 01:20:57;;;;;;;11.77;8.25;;;11.10;83.00;;;;;;5038767;28;20041;-55
2021/11/09 01:23:23;;;;;;;9.32;7.80;;;11.20;82.30;;;;;;5031514;28;20023;-55
2021/11/09 01:25:49;;;;;;;9.35;7.47;;;11.20;82.20;;;;;;5033019;28;20083;-57
2021/11/09 01:28:16;;;;;;;10.70;7.93;;;11.30;81.60;;;;;;5034592;28;20052;-53
2021/11/09 01:30:42;;;;;;;11.65;8.10;;;11.30;81.50;;;;;;5028139;28;20534;-54
2021/11/09 01:33:08;;;;;;;10.13;7.95;;;11.30;81.40;;;;;;5019911;28;20539;-53
2021/11/09 01:35:34;;;;;;;8.85;7.60;;;11.40;81.30;;;;;;5047843;28;20120;-56
2021/11/09 01:38:00;;;;;;;9.93;7.85;;;11.40;81.30;;;;;;5036330;28;20060;-56
2021/11/09 01:43:49;;;;;;;10.00;7.95;;;11.50;79.40;;;;;;5042261;28;20055;-51
2021/11/09 01:46:16;;;;;;;9.55;8.02;;;11.50;80.30;;;;;;5036265;28;20037;-55
2021/11/09 01:48:42;;;;;;;11.43;7.90;;;11.50;80.30;;;;;;5028721;28;20042;-51
2021/11/09 01:51:11;;;;;;;8.98;7.70;;;11.70;80.50;;;;;;5028727;28;20371;-55
2021/11/09 01:54:21;;;;;;;9.20;7.35;;;11.70;82.40;;;;;;5059524;28;20373;-55
2021/11/09 01:56:47;;;;;;;7.80;7.03;;;11.60;83.10;;;;;;5044804;28;20037;-54
2021/11/09 01:59:13;;;;;;;9.45;7.50;;;11.60;83.20;;;;;;5047131;28;20466;-54
2021/11/09 02:01:39;;;;;;;8.13;7.30;;;11.60;83.40;;;;;;5044993;28;20087;-54
2021/11/09 02:04:08;;;;;;;8.80;7.18;;;11.60;83.70;;;;;;5045470;28;20113;-54
2021/11/09 02:06:34;;;;;;;8.80;7.72;;;11.60;83.30;;;;;;5047528;28;20037;-56
2021/11/09 02:09:10;;;;;;;9.60;7.97;;;11.40;83.10;;;;;;5043655;28;20091;-54
2021/11/09 02:11:36;;;;;;;9.50;7.95;;;11.40;84.30;;;;;;5044165;28;20017;-56
2021/11/09 02:14:03;;;;;;;10.35;7.93;;;11.30;84.10;;;;;;5041269;28;20049;-54
2021/11/09 02:16:29;;;;;;;10.63;7.90;;;11.30;84.40;;;;;;5047645;28;20398;-52
2021/11/09 02:18:55;;;;;;;8.57;7.60;;;11.20;83.70;;;;;;5035533;28;20040;-51
2021/11/09 02:21:21;;;;;;;8.65;7.75;;;11.20;84.40;;;;;;5045602;28;20034;-52
2021/11/09 02:23:47;;;;;;;10.23;8.13;;;11.20;84.50;;;;;;5046083;28;20044;-54
2021/11/09 02:26:16;;;;;;;8.95;7.35;;;11.10;84.10;;;;;;5044108;28;20021;-52
2021/11/09 02:28:42;;;;;;;11.60;7.93;;;11.10;84.40;;;;;;5046485;28;20041;-53
2021/11/09 02:31:09;;;;;;;9.88;8.10;;;11.00;83.30;;;;;;5044299;28;20025;-54
2021/11/09 02:33:36;;;;;;;10.00;7.72;;;10.90;84.40;;;;;;5059784;28;20029;-55
2021/11/09 02:36:02;;;;;;;9.60;8.15;;;11.00;84.10;;;;;;5045540;28;20039;-55
2021/11/09 02:38:28;;;;;;;10.20;8.38;;;11.10;84.40;;;;;;5044813;28;20040;-53
2021/11/09 02:40:55;;;;;;;9.95;7.90;;;11.00;84.30;;;;;;5044955;28;20030;-54
2021/11/09 02:43:22;;;;;;;8.60;7.50;;;11.00;83.90;;;;;;5044789;28;20021;-55
2021/11/09 02:48:43;;;;;;;10.52;7.18;;;10.80;84.50;;;;;;5041475;28;20056;-54
2021/11/09 02:51:16;;;;;;;9.00;8.10;;;10.90;82.70;;;;;;5044171;28;20036;-54
2021/11/09 02:53:48;;;;;;;9.40;8.20;;;10.90;83.10;;;;;;5045262;28;20085;-53
2021/11/09 02:56:28;;;;;;;9.60;8.60;;;10.80;83.90;;;;;;5044419;28;20028;-56
2021/11/09 03:02:03;;;;;;;10.10;8.57;;;10.90;83.60;;;;;;5045591;28;20375;-55
2021/11/09 03:04:42;;;;;;;14.23;8.95;;;10.90;83.30;;;;;;5039814;28;20495;-54
2021/11/09 03:07:11;;;;;;;9.52;8.05;;;10.80;83.50;;;;;;5031248;28;20037;-55
2021/11/09 03:12:40;;;;;;;10.98;8.18;;;10.80;83.00;;;;;;5037727;28;20144;-53
2021/11/09 03:15:09;;;;;;;9.98;8.10;;;10.60;83.70;;;;;;5032335;28;20036;-55
2021/11/09 03:17:43;;;;;;;13.30;8.93;;;10.70;83.70;;;;;;5030040;28;20327;-54
2021/11/09 03:20:16;;;;;;;11.07;8.20;;;10.70;83.50;;;;;;5031127;28;20075;-55
2021/11/09 03:47:21;;;;;;;12.15;9.70;;;10.50;83.60;;;;;;5030126;28;20041;-51
2021/11/09 03:49:48;;;;;;;11.55;10.13;;;10.50;83.50;;;;;;5032202;28;20075;-49
2021/11/09 03:52:23;;;;;;;14.55;10.23;;;10.50;83.20;;;;;;5027683;28;20049;-50
2021/11/09 03:54:55;;;;;;;12.52;9.68;;;10.50;83.60;;;;;;5029582;28;20475;-49
2021/11/09 03:57:27;;;;;;;12.30;9.50;;;10.50;83.40;;;;;;5030932;28;20105;-51
2021/11/09 04:02:31;;;;;;;10.52;9.10;;;10.60;83.30;;;;;;5029528;28;20072;-51
2021/11/09 04:05:03;;;;;;;13.68;10.15;;;10.50;83.50;;;;;;5030504;28;20388;-50
2021/11/09 05:09:09;;;;;;;16.52;11.70;;;10.40;82.50;;;;;;5053331;28;20041;-49
2021/11/09 05:11:39;;;;;;;16.33;11.30;;;10.50;82.60;;;;;;5050781;28;20509;-49
2021/11/09 05:14:10;;;;;;;14.40;10.52;;;10.50;82.80;;;;;;5053669;28;20528;-51
2021/11/09 05:16:39;;;;;;;17.90;11.20;;;10.40;82.40;;;;;;5052434;28;20390;-52
2021/11/09 05:19:05;;;;;;;17.37;11.67;;;10.40;82.30;;;;;;5047816;28;20045;-49
2021/11/09 05:21:31;;;;;;;15.90;10.82;;;10.50;82.70;;;;;;5053140;28;20039;-49
2021/11/09 05:23:57;;;;;;;15.63;11.90;;;10.50;82.30;;;;;;5052704;28;20028;-49
2021/11/09 05:26:23;;;;;;;16.15;10.68;;;10.50;82.40;;;;;;5057451;28;20071;-49
2021/11/09 05:28:49;;;;;;;14.45;11.00;;;10.50;82.80;;;;;;5045636;28;20025;-49
2021/11/09 05:31:16;;;;;;;15.38;11.15;;;10.50;83.10;;;;;;5053625;28;20041;-49
2021/11/09 05:33:42;;;;;;;16.40;11.10;;;10.50;82.90;;;;;;5054170;28;20501;-52
2021/11/09 05:36:10;;;;;;;19.40;12.60;;;10.40;82.10;;;;;;5049282;28;20021;-51
2021/11/09 05:41:18;;;;;;;24.05;12.48;;;10.40;82.40;;;;;;5046274;28;20041;-50
2021/11/09 05:43:44;;;;;;;21.13;12.23;;;10.40;82.60;;;;;;5044172;28;20028;-50
2021/11/09 05:46:10;;;;;;;19.63;10.95;;;10.40;82.40;;;;;;5050221;28;20120;-50
2021/11/09 05:48:37;;;;;;;18.33;11.93;;;10.40;82.50;;;;;;5054211;28;20082;-50
2021/11/09 05:51:04;;;;;;;16.88;11.70;;;10.40;82.40;;;;;;5054225;28;20091;-56
2021/11/09 05:53:30;;;;;;;19.83;11.82;;;10.50;82.40;;;;;;5047105;28;20056;-52
2021/11/09 05:55:57;;;;;;;19.60;12.15;;;10.40;82.60;;;;;;5051468;28;20094;-54
2021/11/09 05:58:23;;;;;;;18.15;12.10;;;10.30;82.30;;;;;;5049989;28;20025;-50
2021/11/09 06:00:48;;;;;;;19.27;12.93;;;10.30;82.70;;;;;;5049791;28;20097;-50
2021/11/09 06:03:14;;;;;;;19.85;13.00;;;10.40;83.00;;;;;;5037303;28;20048;-49
2021/11/09 06:05:40;;;;;;;16.98;11.55;;;10.40;82.00;;;;;;5036548;28;20395;-51
2021/11/09 06:08:06;;;;;;;15.35;12.15;;;10.40;82.40;;;;;;5033716;28;20025;-49
2021/11/09 06:10:32;;;;;;;18.20;11.80;;;10.30;82.30;;;;;;5036921;28;20127;-50
2021/11/09 06:12:57;;;;;;;18.02;11.90;;;10.30;82.40;;;;;;5023222;28;20428;-52
2021/11/09 06:15:23;;;;;;;14.48;11.40;;;10.40;82.40;;;;;;5029104;28;20048;-52
2021/11/09 06:17:48;;;;;;;17.42;12.27;;;10.40;82.70;;;;;;5033493;28;20056;-51
2021/11/09 06:20:14;;;;;;;20.15;12.43;;;10.30;82.60;;;;;;5033987;28;20108;-52
2021/11/09 06:22:41;;;;;;;18.65;13.07;;;10.40;83.10;;;;;;5039815;28;20029;-51
2021/11/09 06:25:07;;;;;;;17.88;12.13;;;10.40;82.60;;;;;;5033183;28;20036;-51
2021/11/09 06:27:33;;;;;;;19.95;12.30;;;10.20;83.30;;;;;;5036972;28;20029;-51
2021/11/09 06:29:58;;;;;;;18.70;12.68;;;10.20;83.80;;;;;;5036487;28;20025;-49
2021/11/09 06:32:24;;;;;;;17.67;12.02;;;10.20;83.60;;;;;;5026662;28;20063;-55
2021/11/09 06:34:50;;;;;;;17.92;13.48;;;10.30;83.90;;;;;;5028906;28;20036;-52
2021/11/09 06:37:16;;;;;;;20.27;12.88;;;10.30;84.00;;;;;;5029803;28;20079;-51
2021/11/09 06:39:41;;;;;;;18.52;13.85;;;10.30;83.50;;;;;;5027070;28;20109;-51
2021/11/09 06:42:07;;;;;;;20.00;14.98;;;10.50;83.80;;;;;;5027302;28;20033;-52
2021/11/09 06:44:33;;;;;;;18.02;13.60;;;10.40;83.60;;;;;;5026663;28;20097;-50
2021/11/09 06:46:59;;;;;;;22.55;15.85;;;10.40;83.40;;;;;;5027642;28;20453;-53
2021/11/09 06:49:24;;;;;;;23.38;16.13;;;10.40;83.40;;;;;;5030128;28;20033;-52
2021/11/09 06:51:50;;;;;;;20.88;16.33;;;10.50;83.40;;;;;;5029311;28;20054;-51
2021/11/09 06:54:16;;;;;;;22.70;16.10;;;10.40;83.70;;;;;;5028951;28;20025;-51
